• Join FlightAware (Why Join?)
  • Login
  • US Flag 
09:28AM EDT


 

Airport Tracker/Info


-or-


 

Live Flight TrackerFlight Track Log ✈ N431EH ✈ 29-Apr-2014 ✈ KCYS - KRWL

Flight Track Log - Related Links

Times and Time Zones

All times are in EDT time to prevent confusion due to time zone crossing. See the N431EH flight status page for this flight to view local times or setup timezone preferences in your user account.

Time Position Orientation Groundspeed Altitude Reporting Facility
EDT Latitude Longitude Course Direction KTS MPH feet Rate Location/Type
05:05PM 41.1818 -104.9225 295° West 264 304 10,600  Level FlightAware ADS-B (KEIK)
05:05PM 41.1968 -104.9651 295° West 304 350 11,800 2,400 Climbing FlightAware ADS-B (KEIK)
05:06PM 41.2153 -105.0174 295° West 312 359 13,500 4,260 Climbing FlightAware ADS-B (KEIK)
05:07PM 41.2488 -105.1124 295° West 291 335 17,400 4,920 Climbing FlightAware ADS-B (KEIK)
05:07PM 41.2661 -105.1614 295° West 272 313 19,800 3,360 Climbing FlightAware ADS-B (KEIK)
05:08PM 41.2904 -105.2297 295° West 306 352 21,500 2,220 Climbing FlightAware ADS-B (KEIK)
05:09PM 41.3118 -105.2903 295° West 328 377 22,800 1,200 Climbing FlightAware ADS-B (KEIK)
05:09PM 41.3358 -105.3589 295° West 349 402 23,000 120 Climbing FlightAware ADS-B (KEIK)
05:10PM 41.3722 -105.4628 295° West 373 429 23,000  Level FlightAware ADS-B (KEIK)
05:11PM 41.3980 -105.5367 295° West 381 438 23,000  Level FlightAware ADS-B (KEIK)
05:11PM 41.4287 -105.6247 295° West 386 444 23,000  Level FlightAware ADS-B (KEIK)
05:12PM 41.4691 -105.7411 295° West 387 445 23,000  Level FlightAware ADS-B (KEIK)
05:13PM 41.4940 -105.8130 295° West 388 447 23,000  Level FlightAware ADS-B (KEIK)
05:13PM 41.5207 -105.8907 294° West 384 442 23,000 -960 Level FlightAware ADS-B (KEIK)
05:14PM 41.5513 -105.9806 294° West 389 448 21,900 -1,860 Descending FlightAware ADS-B (KEIK)
05:15PM 41.5737 -106.0517 292° West 393 452 20,800 -1,920 Descending FlightAware ADS-B (KEIK)
05:15PM 41.5981 -106.1361 292° West 388 447 19,600 -1,740 Descending Denver Center
05:16PM 41.6353 -106.2639 291° West 386 444 17,900 -1,680 Descending Denver Center
05:17PM 41.6772 -106.4061 292° West 374 430 16,200 -1,560 Descending Denver Center
05:18PM 41.7097 -106.5244 290° West 352 405 14,700 -1,260 Descending Denver Center
05:19PM 41.7422 -106.6353 291° West 343 395 13,700 -1,080 Descending Denver Center
05:20PM 41.7783 -106.7469 293° West 310 357 12,600 -1,500 Descending Denver Center
05:21PM 41.8008 -106.8331 289° West 277 319 10,700 -1,860 Descending Denver Center